Chesterfield, Indiana
Current Conditions -  °F | °C
As of 12:53 PM on Thursday 30 Oct 2014 (Local Time) from KMIE Reporting Station
Overcast Overcast  
Wind Chill: 48°   Ceiling: 3500
Heat Index: 48°   Visibility: 10mi
Dew Point: 32°   Wind: 0mph
Humidity: 54%   Direction: NA
Pressure: 30.15"   Gusts: NA
Location:  40.0742°N, 85.6063°W
Report Text: KMIE 301653Z 00000KT 10SM OVC035 09/00 A3015 RMK AO2 SLP209 T00890000
Loading
Personal Weather Stations






























Interactive Weather Map
Tropical Storm Tracking
New forecast layout! Learn more

10-Day Weather Forecast

Advertisements
Track Severe Weather on mobile